Les Eplatures, Switzerland
Current Conditions -  °F | °C
As of 4:20 AM on Sunday 25 Jan 2015 (Local Time) from LSGC Reporting Station
Broken Clouds Broken Clouds  
Wind Chill: 14°   Ceiling: 400
Heat Index: 25°   Visibility: 6mi
Dew Point: 23°   Wind: 12mph
Humidity: 93%   Direction: 40°NE
Pressure: 30.21"   Gusts: NA
Location:  47.09°N, 6.8°E
Report Text: LSGC 250320Z AUTO 04010KT 350V080 9999 BKN004 SCT014 M04/M05 Q1023 RESHSN
Loading
Personal Weather Stations






























Interactive Weather Map New forecast layout! Learn more

10-Day Weather Forecast

Advertisements
Track Severe Weather on mobile